logo
Search for airport 
image banner adimage banner adimage banner ad
image banner ad

SGELBL - Estancia Luna Blanca

Located in Santa Ana 1, Paraguay

ICAO - , IATA -

Data provided by Airmate  

General information

Coordinates: S22°50'11" W56°27'17"
Elevation is 594 feet MSL.
Magnetic variation is -16° East
View others Airports in Amambay Department

Operational data

Special qualification required
Current time UTC:
Current local time:
Weather at : - ( 0 km )
METAR: KQFX 141610Z AUTO 11001KT 9999 SCT047 23/21 A2988 RMK A02 TSNO
View NOTAMs / SUP AIP / TFR affecting this airport [VIEW]
Communications frequencies: [VIEW]

Runways:

RWY identifierQFULength (ft)Width (ft)SurfaceLDA (ft)
32303°368791GRAS
14123°368791GRAS

Airport contact information

Address: Santa Ana 1 Paraguay

Satellite view of SGELBL